createdAt,value
2017-03-15T00:00:21.113Z,0
2017-03-15T00:01:31.372Z,0
2017-03-15T00:02:40.996Z,0
2017-03-15T00:03:51.253Z,0
2017-03-15T00:05:01.194Z,0
2017-03-15T00:06:10.815Z,0
2017-03-15T00:07:20.441Z,0
2017-03-15T00:08:30.694Z,0
2017-03-15T00:09:40.313Z,0
2017-03-15T00:10:49.931Z,0
2017-03-15T00:11:59.861Z,0
2017-03-15T00:13:09.800Z,0
2017-03-15T00:14:20.050Z,0
2017-03-15T00:15:29.982Z,0
2017-03-15T00:16:39.920Z,0
2017-03-15T00:17:49.852Z,0
2017-03-15T00:18:59.794Z,0
2017-03-15T00:20:10.058Z,0
2017-03-15T00:21:19.991Z,0
2017-03-15T00:22:30.244Z,0
2017-03-15T00:23:40.177Z,0
2017-03-15T00:24:50.424Z,0
2017-03-15T00:26:00.677Z,0
2017-03-15T00:27:10.923Z,0
2017-03-15T00:28:20.545Z,0
2017-03-15T00:29:30.807Z,0
2017-03-15T00:30:41.077Z,0
2017-03-15T00:31:51.017Z,0
2017-03-15T00:33:01.264Z,0
2017-03-15T00:34:11.511Z,0
2017-03-15T00:35:21.442Z,0
2017-03-15T00:36:31.382Z,0
2017-03-15T00:37:41.631Z,0
2017-03-15T00:38:51.881Z,0
2017-03-15T00:40:01.507Z,0
2017-03-15T00:41:11.758Z,0
2017-03-15T00:42:21.387Z,0
2017-03-15T00:43:31.643Z,0
2017-03-15T00:44:41.583Z,0
2017-03-15T00:45:50.905Z,0
2017-03-15T00:47:01.153Z,0
2017-03-15T00:48:11.426Z,0
2017-03-15T00:49:21.371Z,0
2017-03-15T00:50:31.307Z,0
2017-03-15T00:51:41.561Z,0
2017-03-15T00:52:51.492Z,0
2017-03-15T00:54:01.751Z,0
2017-03-15T00:55:12.002Z,0
2017-03-15T00:56:21.623Z,0
2017-03-15T00:57:31.561Z,0
2017-03-15T00:58:41.181Z,0
2017-03-15T00:59:51.469Z,0
2017-03-15T01:01:01.414Z,0
2017-03-15T01:02:10.722Z,0
2017-03-15T01:03:20.976Z,0
2017-03-15T01:04:30.916Z,0
2017-03-15T01:05:40.850Z,0
2017-03-15T01:06:50.783Z,0
2017-03-15T01:08:01.031Z,0
2017-03-15T01:09:10.976Z,0
2017-03-15T01:10:20.911Z,0
2017-03-15T01:11:30.847Z,0
2017-03-15T01:12:41.103Z,0
2017-03-15T01:13:50.721Z,0
2017-03-15T01:15:00.660Z,0
2017-03-15T01:16:10.289Z,0
2017-03-15T01:17:20.228Z,0
2017-03-15T01:18:30.476Z,0
2017-03-15T01:19:40.719Z,0
2017-03-15T01:20:50.973Z,0
2017-03-15T01:22:00.600Z,0
2017-03-15T01:23:10.878Z,0
2017-03-15T01:24:21.122Z,0
2017-03-15T01:25:31.364Z,0
2017-03-15T01:26:41.614Z,0
2017-03-15T01:27:51.563Z,0
2017-03-15T01:29:01.191Z,0
2017-03-15T01:30:11.443Z,0
2017-03-15T01:31:21.699Z,0
2017-03-15T01:32:31.630Z,0
2017-03-15T01:33:41.568Z,0
2017-03-15T01:34:51.197Z,0
2017-03-15T01:36:01.462Z,0
2017-03-15T01:37:11.084Z,0
2017-03-15T01:38:21.346Z,0
2017-03-15T01:39:31.592Z,0
2017-03-15T01:40:41.528Z,0
2017-03-15T01:41:51.483Z,0
2017-03-15T01:43:01.117Z,0
2017-03-15T01:44:10.749Z,0
2017-03-15T01:45:21.005Z,0
2017-03-15T01:46:30.937Z,0
2017-03-15T01:47:40.880Z,0
2017-03-15T01:48:50.815Z,0
2017-03-15T01:50:01.063Z,0
2017-03-15T01:51:10.689Z,0
2017-03-15T01:52:20.627Z,0
2017-03-15T01:53:30.248Z,0
2017-03-15T01:54:39.869Z,0
2017-03-15T01:55:49.802Z,0
2017-03-15T01:56:59.747Z,0
2017-03-15T01:58:09.362Z,0
2017-03-15T01:59:19.296Z,0
2017-03-15T02:00:29.237Z,0
2017-03-15T02:01:39.180Z,0
2017-03-15T02:02:49.182Z,0
2017-03-15T02:03:59.435Z,0
2017-03-15T02:05:09.687Z,0
2017-03-15T02:06:19.934Z,0
2017-03-15T02:07:29.577Z,0
2017-03-15T02:08:39.823Z,0
2017-03-15T02:09:50.077Z,0
2017-03-15T02:10:59.697Z,0
2017-03-15T02:12:09.637Z,0
2017-03-15T02:13:19.894Z,0
2017-03-15T02:14:29.529Z,0
2017-03-15T02:15:39.474Z,0
2017-03-15T02:16:49.090Z,0
2017-03-15T02:17:59.027Z,0
2017-03-15T02:19:08.647Z,0
2017-03-15T02:20:18.582Z,0
2017-03-15T02:21:28.516Z,0
2017-03-15T02:22:38.763Z,0
2017-03-15T02:23:49.013Z,0
2017-03-15T02:24:58.634Z,0
2017-03-15T02:26:08.264Z,0
2017-03-15T02:27:18.205Z,0
2017-03-15T02:28:28.138Z,0
2017-03-15T02:29:38.070Z,0
2017-03-15T02:30:48.011Z,0
2017-03-15T02:31:58.252Z,0
2017-03-15T02:33:08.500Z,0
2017-03-15T02:34:18.425Z,0
2017-03-15T02:35:28.673Z,0
2017-03-15T02:36:38.621Z,0
2017-03-15T02:37:48.865Z,0
2017-03-15T02:38:58.804Z,0
2017-03-15T02:40:08.747Z,0
2017-03-15T02:41:19.001Z,0
2017-03-15T02:42:29.261Z,0
2017-03-15T02:43:39.209Z,0
2017-03-15T02:44:49.465Z,0
2017-03-15T02:45:59.126Z,0
2017-03-15T02:47:09.377Z,0
2017-03-15T02:48:19.315Z,0
2017-03-15T02:49:29.568Z,0
2017-03-15T02:50:39.519Z,0
2017-03-15T02:51:49.142Z,0
2017-03-15T02:52:59.076Z,0
2017-03-15T02:54:09.008Z,0
2017-03-15T02:55:18.950Z,0
2017-03-15T02:56:28.885Z,0
2017-03-15T02:57:39.138Z,0
2017-03-15T02:58:49.084Z,0
2017-03-15T02:59:58.709Z,0
2017-03-15T03:01:08.661Z,0
2017-03-15T03:02:18.905Z,0
2017-03-15T03:03:28.521Z,0
2017-03-15T03:04:38.767Z,0
2017-03-15T03:05:49.012Z,0
2017-03-15T03:06:58.946Z,0
2017-03-15T03:08:09.207Z,0
2017-03-15T03:09:19.144Z,0
2017-03-15T03:10:29.080Z,0
2017-03-15T03:11:38.712Z,0
2017-03-15T03:12:48.962Z,0
2017-03-15T03:13:58.892Z,0
2017-03-15T03:15:09.167Z,0
2017-03-15T03:16:18.792Z,0
2017-03-15T03:17:28.727Z,0
2017-03-15T03:18:38.992Z,0
2017-03-15T03:19:48.937Z,0
2017-03-15T03:20:58.872Z,0
2017-03-15T03:22:08.494Z,0
2017-03-15T03:23:18.425Z,0
2017-03-15T03:24:28.676Z,0
2017-03-15T03:25:38.944Z,0
2017-03-15T03:26:48.877Z,0
2017-03-15T03:27:59.126Z,0
2017-03-15T03:29:09.056Z,0
2017-03-15T03:30:18.370Z,0
2017-03-15T03:31:28.305Z,0
2017-03-15T03:32:38.245Z,0
2017-03-15T03:33:48.491Z,0
2017-03-15T03:34:58.747Z,0
2017-03-15T03:36:08.680Z,0
2017-03-15T03:37:18.296Z,0
2017-03-15T03:38:28.536Z,0
2017-03-15T03:39:38.476Z,0
2017-03-15T03:40:48.718Z,0
2017-03-15T03:41:58.969Z,0
2017-03-15T03:43:08.900Z,0
2017-03-15T03:44:18.842Z,0
2017-03-15T03:45:28.781Z,0
2017-03-15T03:46:39.032Z,0
2017-03-15T03:47:49.287Z,0
2017-03-15T03:48:59.533Z,0
2017-03-15T03:50:09.485Z,0
2017-03-15T03:51:19.741Z,0
2017-03-15T03:52:29.365Z,0
2017-03-15T03:53:39.619Z,0
2017-03-15T03:54:49.871Z,0
2017-03-15T03:55:59.509Z,0
2017-03-15T03:57:09.762Z,0
2017-03-15T03:58:19.380Z,0
2017-03-15T03:59:29.643Z,0
2017-03-15T04:00:39.581Z,0
2017-03-15T04:01:49.198Z,0
2017-03-15T04:02:59.446Z,0
2017-03-15T04:04:09.695Z,0
2017-03-15T04:05:19.634Z,0
2017-03-15T04:06:29.252Z,0
2017-03-15T04:07:39.521Z,0
2017-03-15T04:08:49.782Z,0
2017-03-15T04:10:00.031Z,0
2017-03-15T04:11:10.271Z,0
2017-03-15T04:12:20.209Z,0
2017-03-15T04:13:30.458Z,0
2017-03-15T04:14:40.398Z,0
2017-03-15T04:15:50.341Z,0
2017-03-15T04:17:00.279Z,0
2017-03-15T04:18:10.214Z,0
2017-03-15T04:19:20.171Z,0
2017-03-15T04:20:30.421Z,0
2017-03-15T04:21:40.679Z,0
2017-03-15T04:22:50.626Z,0
2017-03-15T04:24:00.253Z,0
2017-03-15T04:25:10.200Z,0
2017-03-15T04:26:20.449Z,0
2017-03-15T04:27:30.702Z,0
2017-03-15T04:28:40.015Z,0
2017-03-15T04:29:50.276Z,0
2017-03-15T04:31:00.521Z,0
2017-03-15T04:32:10.453Z,0
2017-03-15T04:33:20.698Z,0
2017-03-15T04:34:30.959Z,0
2017-03-15T04:35:41.219Z,0
2017-03-15T04:36:51.473Z,0
2017-03-15T04:38:01.740Z,0
2017-03-15T04:39:11.678Z,0
2017-03-15T04:40:21.929Z,0
2017-03-15T04:41:32.181Z,0
2017-03-15T04:42:42.115Z,0
2017-03-15T04:43:52.378Z,0
2017-03-15T04:45:02.620Z,0
2017-03-15T04:46:12.246Z,0
2017-03-15T04:47:21.882Z,0
2017-03-15T04:48:32.151Z,0
2017-03-15T04:49:42.090Z,0
2017-03-15T04:50:52.027Z,0
2017-03-15T04:52:01.957Z,0
2017-03-15T04:53:11.890Z,0
2017-03-15T04:54:22.160Z,0
2017-03-15T04:55:32.097Z,0
2017-03-15T04:56:42.349Z,0
2017-03-15T04:57:51.663Z,0
2017-03-15T04:59:01.906Z,0
2017-03-15T05:00:12.165Z,0
2017-03-15T05:01:21.791Z,0
2017-03-15T05:02:31.767Z,0
2017-03-15T05:03:41.392Z,0
2017-03-15T05:04:51.338Z,0
2017-03-15T05:06:01.594Z,0
2017-03-15T05:07:11.847Z,0
2017-03-15T05:08:21.798Z,0
2017-03-15T05:09:32.048Z,0
2017-03-15T05:10:42.293Z,0
2017-03-15T05:11:52.543Z,0
2017-03-15T05:13:02.471Z,0
2017-03-15T05:14:12.406Z,0
2017-03-15T05:15:22.654Z,0
2017-03-15T05:16:32.906Z,0
2017-03-15T05:17:43.154Z,0
2017-03-15T05:18:53.094Z,0
2017-03-15T05:20:02.714Z,0
2017-03-15T05:21:12.647Z,0
2017-03-15T05:22:22.582Z,0
2017-03-15T05:23:32.525Z,0
2017-03-15T05:24:42.465Z,0
2017-03-15T05:25:52.088Z,0
2017-03-15T05:27:02.013Z,0
2017-03-15T05:28:11.961Z,0
2017-03-15T05:29:21.889Z,0
2017-03-15T05:30:32.141Z,0
2017-03-15T05:31:42.385Z,0
2017-03-15T05:32:51.689Z,0
2017-03-15T05:34:01.938Z,0
2017-03-15T05:35:11.883Z,0
2017-03-15T05:36:22.129Z,0
2017-03-15T05:37:31.763Z,0
2017-03-15T05:38:41.690Z,0
2017-03-15T05:39:51.627Z,0
2017-03-15T05:41:01.561Z,0
2017-03-15T05:42:11.178Z,0
2017-03-15T05:43:21.116Z,0
2017-03-15T05:44:31.052Z,0
2017-03-15T05:45:41.307Z,0
2017-03-15T05:46:51.548Z,0
2017-03-15T05:48:01.484Z,0
2017-03-15T05:49:11.109Z,0
2017-03-15T05:50:21.047Z,0
2017-03-15T05:51:31.300Z,0
2017-03-15T05:52:41.239Z,0
2017-03-15T05:53:50.870Z,0
2017-03-15T05:55:01.121Z,0
2017-03-15T05:56:10.750Z,0
2017-03-15T05:57:20.995Z,0
2017-03-15T05:58:31.248Z,0
2017-03-15T05:59:41.497Z,4
2017-03-15T06:00:51.746Z,4
2017-03-15T06:02:01.681Z,4
2017-03-15T06:03:11.928Z,4
2017-03-15T06:04:21.887Z,0
2017-03-15T06:05:32.135Z,0
2017-03-15T06:06:42.072Z,0
2017-03-15T06:07:52.319Z,0
2017-03-15T06:09:02.262Z,0
2017-03-15T06:10:12.534Z,0
2017-03-15T06:11:22.503Z,4
2017-03-15T06:12:32.450Z,4
2017-03-15T06:13:42.409Z,4
2017-03-15T06:14:52.657Z,4
2017-03-15T06:16:02.909Z,0
2017-03-15T06:17:13.159Z,0
2017-03-15T06:18:23.408Z,0
2017-03-15T06:19:33.343Z,0
2017-03-15T06:20:43.285Z,4
2017-03-15T06:21:53.221Z,4
2017-03-15T06:23:02.843Z,4
2017-03-15T06:24:12.779Z,4
2017-03-15T06:25:22.712Z,4
2017-03-15T06:26:32.648Z,4
2017-03-15T06:27:42.262Z,4
2017-03-15T06:28:52.513Z,0
2017-03-15T06:30:02.152Z,0
2017-03-15T06:31:12.411Z,0
2017-03-15T06:32:22.343Z,4
2017-03-15T06:33:32.279Z,4
2017-03-15T06:34:42.209Z,4
2017-03-15T06:35:52.139Z,4
2017-03-15T06:37:02.387Z,4
2017-03-15T06:38:12.323Z,4
2017-03-15T06:39:22.569Z,4
2017-03-15T06:40:32.508Z,4
2017-03-15T06:41:42.137Z,4
2017-03-15T06:42:52.391Z,4
2017-03-15T06:44:02.012Z,4
2017-03-15T06:45:12.259Z,0
2017-03-15T06:46:22.503Z,0
2017-03-15T06:47:32.439Z,0
2017-03-15T06:48:42.681Z,4
2017-03-15T06:49:52.622Z,4
2017-03-15T06:51:02.558Z,0
2017-03-15T06:52:12.194Z,0
2017-03-15T06:53:21.821Z,0
2017-03-15T06:54:31.765Z,0
2017-03-15T06:55:42.014Z,0
2017-03-15T06:56:52.279Z,0
2017-03-15T06:58:01.908Z,4
2017-03-15T06:59:12.150Z,0
2017-03-15T07:00:22.407Z,4
2017-03-15T07:01:31.731Z,4
2017-03-15T07:02:41.986Z,4
2017-03-15T07:03:52.267Z,4
2017-03-15T07:05:02.206Z,4
2017-03-15T07:06:11.831Z,4
2017-03-15T07:07:22.080Z,4
2017-03-15T07:08:32.340Z,8
2017-03-15T07:09:41.969Z,8
2017-03-15T07:10:51.910Z,8
2017-03-15T07:12:01.850Z,4
2017-03-15T07:13:12.100Z,8
2017-03-15T07:14:22.050Z,8
2017-03-15T07:15:32.299Z,8
2017-03-15T07:16:42.227Z,4
2017-03-15T07:17:52.162Z,4
2017-03-15T07:19:02.412Z,4
2017-03-15T07:20:12.657Z,4
2017-03-15T07:21:22.913Z,4
2017-03-15T07:22:33.169Z,0
2017-03-15T07:23:43.099Z,4
2017-03-15T07:24:52.732Z,4
2017-03-15T07:26:02.979Z,4
2017-03-15T07:27:13.233Z,4
2017-03-15T07:28:23.178Z,8
2017-03-15T07:29:33.122Z,4
2017-03-15T07:30:42.747Z,4
2017-03-15T07:31:52.674Z,4
2017-03-15T07:33:02.628Z,4
2017-03-15T07:34:12.883Z,8
2017-03-15T07:35:23.133Z,8
2017-03-15T07:36:33.073Z,8
2017-03-15T07:37:43.019Z,8
2017-03-15T07:38:52.965Z,4
2017-03-15T07:40:03.208Z,4
2017-03-15T07:41:13.182Z,4
2017-03-15T07:42:23.119Z,4
2017-03-15T07:43:33.051Z,8
2017-03-15T07:44:42.980Z,8
2017-03-15T07:45:53.222Z,4
2017-03-15T07:47:03.160Z,4
2017-03-15T07:48:12.802Z,4
2017-03-15T07:49:22.740Z,4
2017-03-15T07:50:32.678Z,4
2017-03-15T07:51:42.626Z,8
2017-03-15T07:52:52.249Z,8
2017-03-15T07:54:02.506Z,8
2017-03-15T07:55:12.133Z,8
2017-03-15T07:56:22.068Z,8
2017-03-15T07:57:32.310Z,4
2017-03-15T07:58:41.935Z,8
2017-03-15T07:59:51.873Z,8
2017-03-15T08:01:02.126Z,8
2017-03-15T08:02:12.375Z,8
2017-03-15T08:03:22.630Z,8
2017-03-15T08:04:32.286Z,12
2017-03-15T08:05:42.220Z,8
2017-03-15T08:06:52.161Z,12
2017-03-15T08:08:02.090Z,12
2017-03-15T08:09:12.333Z,12
2017-03-15T08:10:21.959Z,16
2017-03-15T08:11:31.896Z,24
2017-03-15T08:12:42.148Z,36
2017-03-15T08:13:52.397Z,44
2017-03-15T08:15:02.326Z,48
2017-03-15T08:16:12.261Z,56
2017-03-15T08:17:21.882Z,64
2017-03-15T08:18:31.815Z,64
2017-03-15T08:19:42.068Z,60
2017-03-15T08:20:52.321Z,64
2017-03-15T08:22:01.943Z,68
2017-03-15T08:23:12.197Z,68
2017-03-15T08:24:22.140Z,68
2017-03-15T08:25:32.110Z,64
2017-03-15T08:26:42.353Z,64
2017-03-15T08:27:51.974Z,60
2017-03-15T08:29:02.224Z,60
2017-03-15T08:30:12.160Z,64
2017-03-15T08:31:21.783Z,60
2017-03-15T08:32:31.091Z,60
2017-03-15T08:33:40.719Z,60
2017-03-15T08:34:50.654Z,56
2017-03-15T08:36:00.274Z,24
2017-03-15T08:37:09.894Z,12
2017-03-15T08:38:19.826Z,8
2017-03-15T08:39:30.100Z,24
2017-03-15T08:40:40.031Z,4
2017-03-15T08:41:49.968Z,8
2017-03-15T08:42:59.914Z,4
2017-03-15T08:44:10.155Z,12
2017-03-15T08:45:19.795Z,52
2017-03-15T08:46:30.039Z,52
2017-03-15T08:47:39.979Z,52
2017-03-15T08:48:49.907Z,52
2017-03-15T08:50:00.160Z,56
2017-03-15T08:51:09.784Z,52
2017-03-15T08:52:20.031Z,52
2017-03-15T08:53:30.285Z,48
2017-03-15T08:54:40.212Z,48
2017-03-15T08:55:49.832Z,48
2017-03-15T08:56:58.832Z,52
2017-03-15T08:58:08.762Z,40
2017-03-15T08:59:19.009Z,48
2017-03-15T09:00:28.932Z,48
2017-03-15T09:01:38.864Z,48
2017-03-15T09:02:48.178Z,44
2017-03-15T09:03:58.106Z,44
2017-03-15T09:05:07.717Z,44
2017-03-15T09:06:17.960Z,48
2017-03-15T09:07:28.208Z,48
2017-03-15T09:08:38.134Z,44
2017-03-15T09:09:48.378Z,40
2017-03-15T09:10:58.299Z,36
2017-03-15T09:12:07.918Z,40
2017-03-15T09:13:18.161Z,44
2017-03-15T09:14:28.408Z,40
2017-03-15T09:15:38.653Z,8
2017-03-15T09:16:48.899Z,8
2017-03-15T09:17:59.152Z,40
2017-03-15T09:19:08.763Z,12
2017-03-15T09:20:19.242Z,40
2017-03-15T09:21:28.861Z,40
2017-03-15T09:22:38.494Z,40
2017-03-15T09:23:47.805Z,36
2017-03-15T09:24:57.738Z,36
2017-03-15T09:26:07.674Z,32
2017-03-15T09:27:17.920Z,36
2017-03-15T09:28:27.536Z,32
2017-03-15T09:29:37.790Z,36
2017-03-15T09:30:48.051Z,32
2017-03-15T09:31:58.293Z,8
2017-03-15T09:33:08.544Z,12
2017-03-15T09:34:18.478Z,32
2017-03-15T09:35:28.413Z,32
2017-03-15T09:36:38.348Z,32
2017-03-15T09:37:47.978Z,32
2017-03-15T09:38:57.655Z,28
2017-03-15T09:40:07.587Z,12
2017-03-15T09:41:17.840Z,8
2017-03-15T09:42:27.455Z,8
2017-03-15T09:43:37.703Z,28
2017-03-15T09:44:47.950Z,28
2017-03-15T09:45:57.888Z,28
2017-03-15T09:47:07.823Z,8
2017-03-15T09:48:18.067Z,28
2017-03-15T09:49:27.687Z,28
2017-03-15T09:50:37.612Z,28
2017-03-15T09:51:47.863Z,20
2017-03-15T09:52:58.103Z,12
2017-03-15T09:54:08.042Z,28
2017-03-15T09:55:18.287Z,8
2017-03-15T09:56:28.217Z,24
2017-03-15T09:57:37.834Z,12
2017-03-15T09:58:47.761Z,28
2017-03-15T09:59:57.681Z,24
2017-03-15T10:01:07.918Z,8
2017-03-15T10:02:17.855Z,8
2017-03-15T10:03:27.469Z,24
2017-03-15T10:04:37.397Z,24
2017-03-15T10:05:46.699Z,12
2017-03-15T10:06:56.655Z,8
2017-03-15T10:08:05.987Z,8
2017-03-15T10:09:16.234Z,8
2017-03-15T10:10:26.176Z,20
2017-03-15T10:11:36.105Z,24
2017-03-15T10:12:46.351Z,20
2017-03-15T10:13:56.280Z,20
2017-03-15T10:15:05.585Z,20
2017-03-15T10:16:15.520Z,20
2017-03-15T10:17:25.765Z,16
2017-03-15T10:18:35.697Z,8
2017-03-15T10:19:45.623Z,20
2017-03-15T10:20:55.859Z,20
2017-03-15T10:22:05.791Z,8
2017-03-15T10:23:16.030Z,4
2017-03-15T10:24:26.267Z,16
2017-03-15T10:25:36.202Z,20
2017-03-15T10:26:46.478Z,16
2017-03-15T10:27:56.407Z,16
2017-03-15T10:29:05.716Z,16
2017-03-15T10:30:15.340Z,16
2017-03-15T10:31:24.652Z,16
2017-03-15T10:32:35.145Z,16
2017-03-15T10:33:45.089Z,16
2017-03-15T10:34:55.032Z,16
2017-03-15T10:36:04.964Z,16
2017-03-15T10:37:15.237Z,12
2017-03-15T10:38:24.542Z,8
2017-03-15T10:39:34.816Z,12
2017-03-15T10:40:44.744Z,8
2017-03-15T10:41:54.987Z,8
2017-03-15T10:43:05.227Z,4
2017-03-15T10:44:15.157Z,4
2017-03-15T10:45:25.416Z,4
2017-03-15T10:46:35.345Z,4
2017-03-15T10:47:45.278Z,8
2017-03-15T10:48:55.200Z,12
2017-03-15T10:50:04.819Z,4
2017-03-15T10:51:15.063Z,4
2017-03-15T10:52:25.328Z,8
2017-03-15T10:53:34.945Z,8
2017-03-15T10:54:45.190Z,12
2017-03-15T10:55:54.809Z,12
2017-03-15T10:57:04.740Z,12
2017-03-15T10:58:14.667Z,12
2017-03-15T10:59:24.914Z,12
2017-03-15T11:00:35.158Z,8
2017-03-15T11:01:44.791Z,12
2017-03-15T11:02:54.408Z,12
2017-03-15T11:04:04.025Z,12
2017-03-15T11:05:14.264Z,12
2017-03-15T11:06:24.197Z,12
2017-03-15T11:07:33.830Z,12
2017-03-15T11:08:43.762Z,8
2017-03-15T11:09:53.695Z,4
2017-03-15T11:11:03.312Z,12
2017-03-15T11:12:13.562Z,8
2017-03-15T11:13:23.175Z,12
2017-03-15T11:14:33.102Z,12
2017-03-15T11:15:42.716Z,8
2017-03-15T11:16:52.330Z,12
2017-03-15T11:18:01.632Z,8
2017-03-15T11:19:11.590Z,8
2017-03-15T11:20:21.514Z,8
2017-03-15T11:21:31.449Z,12
2017-03-15T11:22:41.061Z,12
2017-03-15T11:23:50.995Z,8
2017-03-15T11:25:00.613Z,8
2017-03-15T11:26:10.852Z,8
2017-03-15T11:27:21.090Z,4
2017-03-15T11:28:30.710Z,8
2017-03-15T11:29:40.672Z,4
2017-03-15T11:30:50.624Z,8
2017-03-15T11:32:00.875Z,12
2017-03-15T11:33:10.803Z,8
2017-03-15T11:34:21.051Z,8
2017-03-15T11:35:30.979Z,8
2017-03-15T11:36:40.905Z,8
2017-03-15T11:37:50.834Z,8
2017-03-15T11:39:00.136Z,8
2017-03-15T11:40:09.743Z,8
2017-03-15T11:41:19.355Z,8
2017-03-15T11:42:29.593Z,8
2017-03-15T11:43:39.528Z,8
2017-03-15T11:44:49.767Z,8
2017-03-15T11:45:59.381Z,8
2017-03-15T11:47:09.619Z,8
2017-03-15T11:48:19.543Z,8
2017-03-15T11:49:29.792Z,4
2017-03-15T11:50:38.782Z,8
2017-03-15T11:51:48.713Z,8
2017-03-15T11:52:58.947Z,8
2017-03-15T11:54:07.931Z,8
2017-03-15T11:55:18.179Z,8
2017-03-15T11:56:27.793Z,4
2017-03-15T11:57:38.041Z,8
2017-03-15T11:58:47.967Z,8
2017-03-15T11:59:57.896Z,8
2017-03-15T12:01:07.827Z,4
2017-03-15T12:02:17.753Z,4
2017-03-15T12:03:28.015Z,4
2017-03-15T12:04:38.256Z,4
2017-03-15T12:05:47.870Z,8
2017-03-15T12:06:58.114Z,4
2017-03-15T12:08:08.038Z,4
2017-03-15T12:09:17.971Z,8
2017-03-15T12:10:27.580Z,8
2017-03-15T12:11:37.819Z,8
2017-03-15T12:12:48.064Z,8
2017-03-15T12:13:58.000Z,8
2017-03-15T12:15:07.933Z,8
2017-03-15T12:16:17.849Z,4
2017-03-15T12:17:27.460Z,8
2017-03-15T12:18:37.381Z,8
2017-03-15T12:19:47.306Z,8
2017-03-15T12:20:56.296Z,8
2017-03-15T12:22:06.525Z,8
2017-03-15T12:23:16.761Z,8
2017-03-15T12:24:26.684Z,8
2017-03-15T12:25:36.298Z,4
2017-03-15T12:26:46.232Z,8
2017-03-15T12:27:55.840Z,8
2017-03-15T12:29:05.769Z,8
2017-03-15T12:30:15.379Z,8
2017-03-15T12:31:25.616Z,8
2017-03-15T12:32:35.542Z,8
2017-03-15T12:33:45.784Z,8
2017-03-15T12:34:56.017Z,12
2017-03-15T12:36:05.634Z,8
2017-03-15T12:37:15.879Z,8
2017-03-15T12:38:25.815Z,8
2017-03-15T12:39:35.751Z,8
2017-03-15T12:40:45.992Z,12
2017-03-15T12:41:56.238Z,12
2017-03-15T12:43:06.198Z,12
2017-03-15T12:44:15.850Z,12
2017-03-15T12:45:25.782Z,12
2017-03-15T12:46:35.711Z,12
2017-03-15T12:47:45.947Z,12
2017-03-15T12:48:56.181Z,12
2017-03-15T12:50:05.477Z,12
2017-03-15T12:51:14.775Z,12
2017-03-15T12:52:24.699Z,8
2017-03-15T12:53:34.633Z,12
2017-03-15T12:54:44.869Z,12
2017-03-15T12:55:55.134Z,12
2017-03-15T12:57:04.125Z,12
2017-03-15T12:58:13.735Z,12
2017-03-15T12:59:23.690Z,12
2017-03-15T13:00:33.304Z,8
2017-03-15T13:01:43.228Z,12
2017-03-15T13:02:52.833Z,4
2017-03-15T13:04:02.442Z,12
2017-03-15T13:05:12.054Z,12
2017-03-15T13:06:21.986Z,16
2017-03-15T13:07:32.222Z,12
2017-03-15T13:08:41.525Z,16
2017-03-15T13:09:51.145Z,12
2017-03-15T13:11:00.448Z,12
2017-03-15T13:12:10.057Z,16
2017-03-15T13:13:19.983Z,12
2017-03-15T13:14:30.215Z,12
2017-03-15T13:15:40.459Z,12
2017-03-15T13:16:50.384Z,16
2017-03-15T13:17:59.998Z,16
2017-03-15T13:19:10.252Z,16
2017-03-15T13:20:20.180Z,12
2017-03-15T13:21:29.797Z,16
2017-03-15T13:22:40.035Z,16
2017-03-15T13:23:49.336Z,16
2017-03-15T13:24:59.266Z,12
2017-03-15T13:26:09.188Z,16
2017-03-15T13:27:18.808Z,16
2017-03-15T13:28:29.048Z,16
2017-03-15T13:29:38.345Z,16
2017-03-15T13:30:48.581Z,16
2017-03-15T13:31:58.507Z,8
2017-03-15T13:33:08.434Z,16
2017-03-15T13:34:18.047Z,12
2017-03-15T13:35:28.284Z,12
2017-03-15T13:36:38.557Z,16
2017-03-15T13:37:48.489Z,12
2017-03-15T13:38:58.740Z,12
2017-03-15T13:40:08.666Z,16
2017-03-15T13:41:18.900Z,12
2017-03-15T13:42:28.520Z,16
2017-03-15T13:43:38.445Z,16
2017-03-15T13:44:48.378Z,16
2017-03-15T13:45:58.619Z,16
2017-03-15T13:47:08.544Z,16
2017-03-15T13:48:18.470Z,12
2017-03-15T13:49:28.089Z,16
2017-03-15T13:50:37.700Z,16
2017-03-15T13:51:47.637Z,8
2017-03-15T13:52:57.250Z,8
2017-03-15T13:54:07.175Z,4
2017-03-15T13:55:17.108Z,4
2017-03-15T13:56:27.038Z,4
2017-03-15T13:57:36.969Z,16
2017-03-15T13:58:46.579Z,16
2017-03-15T13:59:55.886Z,16
2017-03-15T14:01:05.187Z,16
2017-03-15T14:02:14.803Z,16
2017-03-15T14:03:24.733Z,16
2017-03-15T14:04:34.978Z,16
2017-03-15T14:05:44.596Z,20
2017-03-15T14:06:54.519Z,16
2017-03-15T14:08:04.141Z,16
2017-03-15T14:09:14.073Z,16
2017-03-15T14:10:24.007Z,12
2017-03-15T14:11:34.243Z,16
2017-03-15T14:12:43.539Z,16
2017-03-15T14:13:53.780Z,12
2017-03-15T14:15:04.024Z,16
2017-03-15T14:16:13.952Z,16
2017-03-15T14:17:23.884Z,16
2017-03-15T14:18:34.127Z,16
2017-03-15T14:19:44.373Z,16
2017-03-15T14:20:54.001Z,16
2017-03-15T14:22:03.618Z,12
2017-03-15T14:23:13.238Z,12
2017-03-15T14:24:22.844Z,16
2017-03-15T14:25:33.084Z,16
2017-03-15T14:26:43.327Z,16
2017-03-15T14:27:53.257Z,12
2017-03-15T14:29:03.198Z,12
2017-03-15T14:30:12.820Z,16
2017-03-15T14:31:23.057Z,12
2017-03-15T14:32:33.298Z,12
2017-03-15T14:33:43.228Z,16
2017-03-15T14:34:53.154Z,16
2017-03-15T14:36:02.767Z,16
2017-03-15T14:37:12.388Z,16
2017-03-15T14:38:22.339Z,12
2017-03-15T14:39:32.294Z,12
2017-03-15T14:40:42.216Z,16
2017-03-15T14:41:52.466Z,16
2017-03-15T14:43:01.773Z,12
2017-03-15T14:44:11.072Z,12
2017-03-15T14:45:21.004Z,16
2017-03-15T14:46:30.931Z,12
2017-03-15T14:47:41.166Z,12
2017-03-15T14:48:51.402Z,12
2017-03-15T14:50:01.329Z,12
2017-03-15T14:51:11.566Z,8
2017-03-15T14:52:21.496Z,12
2017-03-15T14:53:31.736Z,8
2017-03-15T14:54:41.976Z,8
2017-03-15T14:55:51.902Z,8
2017-03-15T14:57:01.519Z,12
2017-03-15T14:58:10.823Z,12
2017-03-15T14:59:20.435Z,12
2017-03-15T15:00:29.732Z,8
2017-03-15T15:01:39.029Z,8
2017-03-15T15:02:48.951Z,8
2017-03-15T15:03:59.188Z,8
2017-03-15T15:05:09.114Z,12
2017-03-15T15:06:19.034Z,8
2017-03-15T15:07:28.953Z,8
2017-03-15T15:08:38.883Z,8
2017-03-15T15:09:48.814Z,8
2017-03-15T15:10:58.744Z,8
2017-03-15T15:12:08.358Z,8
2017-03-15T15:13:17.981Z,8
2017-03-15T15:14:27.907Z,8
2017-03-15T15:15:37.834Z,8
2017-03-15T15:16:47.764Z,8
2017-03-15T15:17:57.377Z,12
2017-03-15T15:19:06.995Z,8
2017-03-15T15:20:17.234Z,8
2017-03-15T15:21:27.475Z,12
2017-03-15T15:22:37.710Z,8
2017-03-15T15:23:47.633Z,8
2017-03-15T15:24:56.625Z,8
2017-03-15T15:26:06.240Z,4
2017-03-15T15:27:15.538Z,8
2017-03-15T15:28:25.777Z,4
2017-03-15T15:29:35.698Z,8
2017-03-15T15:30:45.314Z,4
2017-03-15T15:31:55.555Z,8
2017-03-15T15:33:05.476Z,8
2017-03-15T15:34:15.099Z,4
2017-03-15T15:35:25.021Z,4
2017-03-15T15:36:34.946Z,4
2017-03-15T15:37:44.870Z,4
2017-03-15T15:38:54.796Z,4
2017-03-15T15:40:05.034Z,4
2017-03-15T15:41:14.643Z,4
2017-03-15T15:42:24.884Z,4
2017-03-15T15:43:34.812Z,4
2017-03-15T15:44:45.054Z,4
2017-03-15T15:45:54.663Z,4
2017-03-15T15:47:04.277Z,4
2017-03-15T15:48:13.575Z,4
2017-03-15T15:49:23.815Z,4
2017-03-15T15:50:33.431Z,4
2017-03-15T15:51:43.045Z,4
2017-03-15T15:52:52.985Z,4
2017-03-15T15:54:02.912Z,4
2017-03-15T15:55:12.839Z,4
2017-03-15T15:56:23.081Z,0
2017-03-15T15:57:33.321Z,0
2017-03-15T15:58:43.575Z,4
2017-03-15T15:59:53.821Z,4
2017-03-15T16:01:03.743Z,0
2017-03-15T16:02:13.675Z,4
2017-03-15T16:03:23.917Z,4
2017-03-15T16:04:33.847Z,4
2017-03-15T16:05:44.088Z,0
2017-03-15T16:06:54.332Z,0
2017-03-15T16:08:03.949Z,4
2017-03-15T16:09:14.191Z,4
2017-03-15T16:10:24.432Z,0
2017-03-15T16:11:34.372Z,0
2017-03-15T16:12:44.302Z,0
2017-03-15T16:13:54.227Z,0
2017-03-15T16:15:04.149Z,0
2017-03-15T16:16:13.454Z,0
2017-03-15T16:17:23.690Z,0
2017-03-15T16:18:33.307Z,0
2017-03-15T16:19:43.238Z,0
2017-03-15T16:20:53.173Z,4
2017-03-15T16:22:03.106Z,4
2017-03-15T16:23:12.416Z,4
2017-03-15T16:24:22.648Z,4
2017-03-15T16:25:32.912Z,0
2017-03-15T16:26:43.161Z,0
2017-03-15T16:27:53.092Z,0
2017-03-15T16:29:02.709Z,0
2017-03-15T16:30:12.318Z,0
2017-03-15T16:31:21.938Z,0
2017-03-15T16:32:32.182Z,0
2017-03-15T16:33:42.109Z,0
2017-03-15T16:34:51.719Z,0
2017-03-15T16:36:01.994Z,0
2017-03-15T16:37:11.295Z,0
2017-03-15T16:38:21.529Z,0
2017-03-15T16:39:31.474Z,0
2017-03-15T16:40:41.396Z,0
2017-03-15T16:41:51.324Z,0
2017-03-15T16:43:01.257Z,0
2017-03-15T16:44:11.499Z,4
2017-03-15T16:45:20.809Z,4
2017-03-15T16:46:31.074Z,0
2017-03-15T16:47:41.310Z,4
2017-03-15T16:48:51.229Z,0
2017-03-15T16:50:01.486Z,4
2017-03-15T16:51:11.414Z,0
2017-03-15T16:52:21.687Z,0
2017-03-15T16:53:31.301Z,0
2017-03-15T16:54:41.548Z,0
2017-03-15T16:55:51.784Z,0
2017-03-15T16:57:01.411Z,0
2017-03-15T16:58:11.062Z,0
2017-03-15T16:59:20.994Z,0
2017-03-15T17:00:30.925Z,4
2017-03-15T17:01:40.857Z,0
2017-03-15T17:02:51.097Z,0
2017-03-15T17:04:01.334Z,0